sensor_id;sensor_type;location;lat;lon;timestamp;P1;durP1;ratioP1;P2;durP2;ratioP2
48534;SDS011;34323;52.022;5.686;2022-09-20T00:01:22;3.92;;;1.20;;
48534;SDS011;34323;52.022;5.686;2022-09-20T00:03:51;3.33;;;1.20;;
48534;SDS011;34323;52.022;5.686;2022-09-20T00:06:19;3.22;;;1.30;;
48534;SDS011;34323;52.022;5.686;2022-09-20T00:08:46;9.13;;;1.58;;
48534;SDS011;34323;52.022;5.686;2022-09-20T00:11:17;2.92;;;1.42;;
48534;SDS011;34323;52.022;5.686;2022-09-20T00:13:48;4.72;;;1.30;;
48534;SDS011;34323;52.022;5.686;2022-09-20T00:16:19;2.40;;;1.27;;
48534;SDS011;34323;52.022;5.686;2022-09-20T00:18:48;2.92;;;1.20;;
48534;SDS011;34323;52.022;5.686;2022-09-20T00:21:15;2.97;;;1.25;;
48534;SDS011;34323;52.022;5.686;2022-09-20T00:23:41;2.53;;;1.30;;
48534;SDS011;34323;52.022;5.686;2022-09-20T00:26:07;3.17;;;1.60;;
48534;SDS011;34323;52.022;5.686;2022-09-20T00:28:33;6.00;;;1.75;;
48534;SDS011;34323;52.022;5.686;2022-09-20T00:30:58;3.92;;;1.15;;
48534;SDS011;34323;52.022;5.686;2022-09-20T00:33:24;5.18;;;1.50;;
48534;SDS011;34323;52.022;5.686;2022-09-20T00:36:13;3.92;;;1.45;;
48534;SDS011;34323;52.022;5.686;2022-09-20T00:38:39;4.22;;;1.50;;
48534;SDS011;34323;52.022;5.686;2022-09-20T00:41:05;3.08;;;1.42;;
48534;SDS011;34323;52.022;5.686;2022-09-20T00:43:38;6.88;;;1.75;;
48534;SDS011;34323;52.022;5.686;2022-09-20T00:46:08;5.47;;;1.25;;
48534;SDS011;34323;52.022;5.686;2022-09-20T00:48:45;0.75;;;0.70;;
48534;SDS011;34323;52.022;5.686;2022-09-20T00:51:13;6.60;;;1.58;;
48534;SDS011;34323;52.022;5.686;2022-09-20T00:53:45;2.55;;;1.15;;
48534;SDS011;34323;52.022;5.686;2022-09-20T00:56:24;2.55;;;1.30;;
48534;SDS011;34323;52.022;5.686;2022-09-20T00:58:56;4.70;;;1.33;;
48534;SDS011;34323;52.022;5.686;2022-09-20T01:01:31;6.75;;;1.83;;
48534;SDS011;34323;52.022;5.686;2022-09-20T01:03:57;5.32;;;1.65;;
48534;SDS011;34323;52.022;5.686;2022-09-20T01:06:24;5.05;;;1.30;;
48534;SDS011;34323;52.022;5.686;2022-09-20T01:08:49;3.25;;;1.50;;
48534;SDS011;34323;52.022;5.686;2022-09-20T01:11:17;1.30;;;1.08;;
48534;SDS011;34323;52.022;5.686;2022-09-20T01:13:43;5.68;;;1.42;;
48534;SDS011;34323;52.022;5.686;2022-09-20T01:16:08;3.30;;;1.10;;
48534;SDS011;34323;52.022;5.686;2022-09-20T01:18:35;4.18;;;1.23;;
48534;SDS011;34323;52.022;5.686;2022-09-20T01:21:02;5.32;;;1.23;;
48534;SDS011;34323;52.022;5.686;2022-09-20T01:26:23;2.38;;;1.15;;
48534;SDS011;34323;52.022;5.686;2022-09-20T01:28:58;4.20;;;1.20;;
48534;SDS011;34323;52.022;5.686;2022-09-20T01:31:48;4.47;;;1.20;;
48534;SDS011;34323;52.022;5.686;2022-09-20T01:34:18;6.53;;;1.35;;
48534;SDS011;34323;52.022;5.686;2022-09-20T01:36:54;2.58;;;0.88;;
48534;SDS011;34323;52.022;5.686;2022-09-20T01:42:16;2.95;;;0.98;;
48534;SDS011;34323;52.022;5.686;2022-09-20T01:44:57;2.28;;;1.23;;
48534;SDS011;34323;52.022;5.686;2022-09-20T01:59:22;2.45;;;1.13;;
48534;SDS011;34323;52.022;5.686;2022-09-20T02:02:28;6.05;;;1.63;;
48534;SDS011;34323;52.022;5.686;2022-09-20T02:08:04;1.85;;;1.00;;
48534;SDS011;34323;52.022;5.686;2022-09-20T02:13:28;5.03;;;1.33;;
48534;SDS011;34323;52.022;5.686;2022-09-20T02:30:08;2.25;;;1.02;;
48534;SDS011;34323;52.022;5.686;2022-09-20T02:38:32;3.22;;;1.33;;
48534;SDS011;34323;52.022;5.686;2022-09-20T02:43:54;2.42;;;1.58;;
48534;SDS011;34323;52.022;5.686;2022-09-20T02:46:29;1.63;;;0.98;;
48534;SDS011;34323;52.022;5.686;2022-09-20T02:49:21;3.55;;;1.13;;
48534;SDS011;34323;52.022;5.686;2022-09-20T02:57:12;1.52;;;1.30;;
48534;SDS011;34323;52.022;5.686;2022-09-20T02:59:46;4.22;;;1.27;;
48534;SDS011;34323;52.022;5.686;2022-09-20T03:05:23;3.13;;;1.30;;
48534;SDS011;34323;52.022;5.686;2022-09-20T03:10:40;2.45;;;1.40;;
48534;SDS011;34323;52.022;5.686;2022-09-20T03:16:17;3.40;;;1.42;;
48534;SDS011;34323;52.022;5.686;2022-09-20T03:29:56;4.95;;;1.70;;
48534;SDS011;34323;52.022;5.686;2022-09-20T03:32:43;3.72;;;1.98;;
48534;SDS011;34323;52.022;5.686;2022-09-20T03:38:23;2.60;;;1.30;;
48534;SDS011;34323;52.022;5.686;2022-09-20T03:46:28;4.55;;;1.85;;
48534;SDS011;34323;52.022;5.686;2022-09-20T04:07:00;5.97;;;1.88;;
48534;SDS011;34323;52.022;5.686;2022-09-20T04:09:54;3.38;;;1.80;;
48534;SDS011;34323;52.022;5.686;2022-09-20T04:15:30;3.22;;;1.30;;
48534;SDS011;34323;52.022;5.686;2022-09-20T04:23:09;5.93;;;1.50;;
48534;SDS011;34323;52.022;5.686;2022-09-20T04:25:53;2.53;;;1.60;;
48534;SDS011;34323;52.022;5.686;2022-09-20T04:28:36;3.00;;;1.67;;
48534;SDS011;34323;52.022;5.686;2022-09-20T04:31:32;1.90;;;1.58;;
48534;SDS011;34323;52.022;5.686;2022-09-20T04:34:21;4.13;;;1.98;;
48534;SDS011;34323;52.022;5.686;2022-09-20T04:40:14;3.28;;;1.60;;
48534;SDS011;34323;52.022;5.686;2022-09-20T05:00:07;3.72;;;1.80;;
48534;SDS011;34323;52.022;5.686;2022-09-20T05:05:20;4.60;;;1.55;;
48534;SDS011;34323;52.022;5.686;2022-09-20T05:16:58;3.85;;;2.08;;
48534;SDS011;34323;52.022;5.686;2022-09-20T05:25:00;3.10;;;1.70;;
48534;SDS011;34323;52.022;5.686;2022-09-20T05:28:09;4.97;;;2.13;;
48534;SDS011;34323;52.022;5.686;2022-09-20T05:30:47;2.92;;;2.03;;
48534;SDS011;34323;52.022;5.686;2022-09-20T05:33:20;4.65;;;1.70;;
48534;SDS011;34323;52.022;5.686;2022-09-20T05:35:57;2.53;;;1.50;;
48534;SDS011;34323;52.022;5.686;2022-09-20T05:41:02;2.22;;;1.58;;
48534;SDS011;34323;52.022;5.686;2022-09-20T05:43:55;2.85;;;1.45;;
48534;SDS011;34323;52.022;5.686;2022-09-20T05:47:10;3.97;;;2.28;;
48534;SDS011;34323;52.022;5.686;2022-09-20T05:56:02;3.75;;;1.67;;
48534;SDS011;34323;52.022;5.686;2022-09-20T05:58:55;3.93;;;1.87;;
48534;SDS011;34323;52.022;5.686;2022-09-20T06:01:25;5.15;;;1.40;;
48534;SDS011;34323;52.022;5.686;2022-09-20T06:04:01;3.58;;;1.98;;
48534;SDS011;34323;52.022;5.686;2022-09-20T06:10:25;7.70;;;1.77;;
48534;SDS011;34323;52.022;5.686;2022-09-20T06:15:13;3.83;;;1.70;;
48534;SDS011;34323;52.022;5.686;2022-09-20T06:18:15;3.38;;;2.00;;
48534;SDS011;34323;52.022;5.686;2022-09-20T06:23:42;2.95;;;1.80;;
48534;SDS011;34323;52.022;5.686;2022-09-20T06:26:09;2.75;;;1.63;;
48534;SDS011;34323;52.022;5.686;2022-09-20T06:28:48;5.85;;;2.15;;
48534;SDS011;34323;52.022;5.686;2022-09-20T06:31:18;3.10;;;1.92;;
48534;SDS011;34323;52.022;5.686;2022-09-20T06:36:24;2.60;;;1.55;;
48534;SDS011;34323;52.022;5.686;2022-09-20T06:39:21;4.35;;;1.42;;
48534;SDS011;34323;52.022;5.686;2022-09-20T06:42:21;9.10;;;1.55;;
48534;SDS011;34323;52.022;5.686;2022-09-20T06:44:47;3.72;;;1.58;;
48534;SDS011;34323;52.022;5.686;2022-09-20T06:47:14;3.47;;;1.67;;
48534;SDS011;34323;52.022;5.686;2022-09-20T06:49:40;6.63;;;2.63;;
48534;SDS011;34323;52.022;5.686;2022-09-20T06:52:07;3.40;;;1.98;;
48534;SDS011;34323;52.022;5.686;2022-09-20T06:54:38;2.53;;;1.52;;
48534;SDS011;34323;52.022;5.686;2022-09-20T06:57:09;3.10;;;1.45;;
48534;SDS011;34323;52.022;5.686;2022-09-20T06:59:38;4.78;;;2.08;;
48534;SDS011;34323;52.022;5.686;2022-09-20T07:02:04;4.55;;;1.65;;
48534;SDS011;34323;52.022;5.686;2022-09-20T07:04:29;3.65;;;1.88;;
48534;SDS011;34323;52.022;5.686;2022-09-20T07:07:01;3.95;;;1.77;;
48534;SDS011;34323;52.022;5.686;2022-09-20T07:09:27;4.72;;;1.83;;
48534;SDS011;34323;52.022;5.686;2022-09-20T07:11:53;8.15;;;2.72;;
48534;SDS011;34323;52.022;5.686;2022-09-20T07:14:21;3.78;;;1.98;;
48534;SDS011;34323;52.022;5.686;2022-09-20T07:16:47;7.82;;;3.45;;
48534;SDS011;34323;52.022;5.686;2022-09-20T07:19:13;5.97;;;2.53;;
48534;SDS011;34323;52.022;5.686;2022-09-20T07:21:41;5.55;;;2.80;;
48534;SDS011;34323;52.022;5.686;2022-09-20T07:24:06;5.65;;;2.47;;
48534;SDS011;34323;52.022;5.686;2022-09-20T07:26:32;4.65;;;2.55;;
48534;SDS011;34323;52.022;5.686;2022-09-20T07:28:58;5.63;;;2.67;;
48534;SDS011;34323;52.022;5.686;2022-09-20T07:31:25;9.75;;;2.90;;
48534;SDS011;34323;52.022;5.686;2022-09-20T07:33:51;6.82;;;2.70;;
48534;SDS011;34323;52.022;5.686;2022-09-20T07:36:17;6.47;;;2.78;;
48534;SDS011;34323;52.022;5.686;2022-09-20T07:38:46;7.13;;;2.97;;
48534;SDS011;34323;52.022;5.686;2022-09-20T07:41:14;8.20;;;2.88;;
48534;SDS011;34323;52.022;5.686;2022-09-20T07:43:40;8.50;;;2.63;;
48534;SDS011;34323;52.022;5.686;2022-09-20T07:46:06;6.22;;;3.00;;
48534;SDS011;34323;52.022;5.686;2022-09-20T07:48:35;5.30;;;2.05;;
48534;SDS011;34323;52.022;5.686;2022-09-20T07:51:02;4.07;;;2.33;;
48534;SDS011;34323;52.022;5.686;2022-09-20T07:53:30;4.93;;;2.60;;
48534;SDS011;34323;52.022;5.686;2022-09-20T07:55:56;5.95;;;2.53;;
48534;SDS011;34323;52.022;5.686;2022-09-20T07:58:23;6.18;;;2.53;;
48534;SDS011;34323;52.022;5.686;2022-09-20T08:00:57;6.07;;;2.53;;
48534;SDS011;34323;52.022;5.686;2022-09-20T08:03:23;11.20;;;2.50;;
48534;SDS011;34323;52.022;5.686;2022-09-20T08:05:50;5.82;;;1.85;;
48534;SDS011;34323;52.022;5.686;2022-09-20T08:08:18;4.97;;;2.40;;
48534;SDS011;34323;52.022;5.686;2022-09-20T08:10:44;4.88;;;2.60;;
48534;SDS011;34323;52.022;5.686;2022-09-20T08:13:11;10.18;;;2.63;;
48534;SDS011;34323;52.022;5.686;2022-09-20T08:15:37;4.15;;;1.95;;
48534;SDS011;34323;52.022;5.686;2022-09-20T08:18:03;7.00;;;1.63;;
48534;SDS011;34323;52.022;5.686;2022-09-20T08:20:33;4.53;;;1.40;;
48534;SDS011;34323;52.022;5.686;2022-09-20T08:23:01;2.63;;;1.40;;
48534;SDS011;34323;52.022;5.686;2022-09-20T08:25:27;3.20;;;1.55;;
48534;SDS011;34323;52.022;5.686;2022-09-20T08:27:53;2.85;;;1.20;;
48534;SDS011;34323;52.022;5.686;2022-09-20T08:30:19;4.00;;;1.70;;
48534;SDS011;34323;52.022;5.686;2022-09-20T08:32:45;3.25;;;1.80;;
48534;SDS011;34323;52.022;5.686;2022-09-20T08:35:10;2.80;;;1.23;;
48534;SDS011;34323;52.022;5.686;2022-09-20T08:37:38;4.90;;;1.50;;
48534;SDS011;34323;52.022;5.686;2022-09-20T08:40:04;8.68;;;1.70;;
48534;SDS011;34323;52.022;5.686;2022-09-20T08:42:32;3.90;;;1.45;;
48534;SDS011;34323;52.022;5.686;2022-09-20T08:45:02;6.57;;;1.10;;
48534;SDS011;34323;52.022;5.686;2022-09-20T08:47:36;6.00;;;1.40;;
48534;SDS011;34323;52.022;5.686;2022-09-20T08:50:10;4.18;;;1.42;;
48534;SDS011;34323;52.022;5.686;2022-09-20T08:52:39;1.67;;;1.55;;
48534;SDS011;34323;52.022;5.686;2022-09-20T08:55:16;6.30;;;1.80;;
48534;SDS011;34323;52.022;5.686;2022-09-20T08:57:51;5.32;;;1.67;;
48534;SDS011;34323;52.022;5.686;2022-09-20T09:00:20;4.63;;;1.77;;
48534;SDS011;34323;52.022;5.686;2022-09-20T09:02:53;3.35;;;1.88;;
48534;SDS011;34323;52.022;5.686;2022-09-20T09:05:27;5.70;;;2.22;;
48534;SDS011;34323;52.022;5.686;2022-09-20T09:07:55;4.55;;;1.67;;
48534;SDS011;34323;52.022;5.686;2022-09-20T09:10:24;2.95;;;2.08;;
48534;SDS011;34323;52.022;5.686;2022-09-20T09:12:52;4.20;;;2.55;;
48534;SDS011;34323;52.022;5.686;2022-09-20T09:15:37;5.05;;;2.08;;
48534;SDS011;34323;52.022;5.686;2022-09-20T09:18:17;5.93;;;2.00;;
48534;SDS011;34323;52.022;5.686;2022-09-20T09:20:42;5.18;;;1.95;;
48534;SDS011;34323;52.022;5.686;2022-09-20T09:23:18;2.50;;;1.30;;
48534;SDS011;34323;52.022;5.686;2022-09-20T09:25:49;5.30;;;1.45;;
48534;SDS011;34323;52.022;5.686;2022-09-20T09:28:16;4.18;;;1.30;;
48534;SDS011;34323;52.022;5.686;2022-09-20T09:30:49;3.05;;;1.30;;
48534;SDS011;34323;52.022;5.686;2022-09-20T09:33:25;3.72;;;1.13;;
48534;SDS011;34323;52.022;5.686;2022-09-20T09:38:30;2.65;;;0.95;;
48534;SDS011;34323;52.022;5.686;2022-09-20T09:40:59;1.27;;;0.70;;
48534;SDS011;34323;52.022;5.686;2022-09-20T09:43:27;3.08;;;0.55;;
48534;SDS011;34323;52.022;5.686;2022-09-20T09:46:15;1.00;;;0.70;;
48534;SDS011;34323;52.022;5.686;2022-09-20T09:48:45;3.20;;;0.70;;
48534;SDS011;34323;52.022;5.686;2022-09-20T09:51:20;5.35;;;1.30;;
48534;SDS011;34323;52.022;5.686;2022-09-20T09:53:47;2.17;;;0.70;;
48534;SDS011;34323;52.022;5.686;2022-09-20T09:56:24;3.65;;;0.80;;
48534;SDS011;34323;52.022;5.686;2022-09-20T10:04:34;4.22;;;1.35;;
48534;SDS011;34323;52.022;5.686;2022-09-20T10:07:22;2.17;;;1.00;;
48534;SDS011;34323;52.022;5.686;2022-09-20T10:13:03;2.78;;;1.08;;
48534;SDS011;34323;52.022;5.686;2022-09-20T10:18:33;1.35;;;0.60;;
48534;SDS011;34323;52.022;5.686;2022-09-20T10:26:31;2.38;;;0.80;;
48534;SDS011;34323;52.022;5.686;2022-09-20T10:29:18;4.32;;;0.90;;
48534;SDS011;34323;52.022;5.686;2022-09-20T10:31:52;4.28;;;0.70;;
48534;SDS011;34323;52.022;5.686;2022-09-20T10:38:42;0.60;;;0.45;;
48534;SDS011;34323;52.022;5.686;2022-09-20T10:46:31;3.90;;;0.98;;
48534;SDS011;34323;52.022;5.686;2022-09-20T10:49:17;1.77;;;0.73;;
48534;SDS011;34323;52.022;5.686;2022-09-20T10:52:26;3.67;;;1.08;;
48534;SDS011;34323;52.022;5.686;2022-09-20T11:08:45;0.68;;;0.50;;
48534;SDS011;34323;52.022;5.686;2022-09-20T11:11:20;1.67;;;0.80;;
48534;SDS011;34323;52.022;5.686;2022-09-20T11:16:55;4.25;;;0.90;;
48534;SDS011;34323;52.022;5.686;2022-09-20T11:19:46;1.00;;;0.40;;
48534;SDS011;34323;52.022;5.686;2022-09-20T11:22:20;3.97;;;0.40;;
48534;SDS011;34323;52.022;5.686;2022-09-20T11:27:48;5.68;;;0.73;;
48534;SDS011;34323;52.022;5.686;2022-09-20T11:30:20;2.53;;;0.77;;
48534;SDS011;34323;52.022;5.686;2022-09-20T11:33:01;5.50;;;1.23;;
48534;SDS011;34323;52.022;5.686;2022-09-20T11:35:37;2.80;;;0.70;;
48534;SDS011;34323;52.022;5.686;2022-09-20T11:38:24;3.50;;;0.77;;
48534;SDS011;34323;52.022;5.686;2022-09-20T11:41:14;7.90;;;1.05;;
48534;SDS011;34323;52.022;5.686;2022-09-20T11:43:45;3.35;;;0.68;;
48534;SDS011;34323;52.022;5.686;2022-09-20T11:46:23;5.20;;;0.75;;
48534;SDS011;34323;52.022;5.686;2022-09-20T11:48:56;4.90;;;1.02;;
48534;SDS011;34323;52.022;5.686;2022-09-20T11:52:09;2.90;;;1.10;;
48534;SDS011;34323;52.022;5.686;2022-09-20T11:54:35;3.25;;;0.88;;
48534;SDS011;34323;52.022;5.686;2022-09-20T11:57:20;4.72;;;0.88;;
48534;SDS011;34323;52.022;5.686;2022-09-20T11:59:49;2.30;;;0.70;;
48534;SDS011;34323;52.022;5.686;2022-09-20T12:02:31;3.50;;;0.65;;
48534;SDS011;34323;52.022;5.686;2022-09-20T12:05:00;3.92;;;0.60;;
48534;SDS011;34323;52.022;5.686;2022-09-20T12:07:34;1.58;;;0.65;;
48534;SDS011;34323;52.022;5.686;2022-09-20T12:12:54;2.40;;;0.60;;
48534;SDS011;34323;52.022;5.686;2022-09-20T12:28:51;2.25;;;0.43;;
48534;SDS011;34323;52.022;5.686;2022-09-20T12:34:02;3.85;;;0.77;;
48534;SDS011;34323;52.022;5.686;2022-09-20T12:36:34;1.10;;;0.70;;
48534;SDS011;34323;52.022;5.686;2022-09-20T12:41:45;6.45;;;0.68;;
48534;SDS011;34323;52.022;5.686;2022-09-20T12:44:58;2.35;;;0.50;;
48534;SDS011;34323;52.022;5.686;2022-09-20T12:49:42;2.17;;;0.52;;
48534;SDS011;34323;52.022;5.686;2022-09-20T12:55:32;2.72;;;0.65;;
48534;SDS011;34323;52.022;5.686;2022-09-20T13:00:40;1.38;;;0.50;;
48534;SDS011;34323;52.022;5.686;2022-09-20T13:03:27;5.85;;;0.52;;
48534;SDS011;34323;52.022;5.686;2022-09-20T13:13:56;1.30;;;0.50;;
48534;SDS011;34323;52.022;5.686;2022-09-20T13:19:17;3.35;;;0.95;;
48534;SDS011;34323;52.022;5.686;2022-09-20T13:21:57;4.57;;;0.80;;
48534;SDS011;34323;52.022;5.686;2022-09-20T13:24:38;1.40;;;0.25;;
48534;SDS011;34323;52.022;5.686;2022-09-20T13:27:53;3.95;;;0.98;;
48534;SDS011;34323;52.022;5.686;2022-09-20T13:30:16;4.22;;;0.47;;
48534;SDS011;34323;52.022;5.686;2022-09-20T13:32:45;2.95;;;0.32;;
48534;SDS011;34323;52.022;5.686;2022-09-20T13:37:37;3.03;;;0.75;;
48534;SDS011;34323;52.022;5.686;2022-09-20T13:40:20;3.08;;;0.50;;
48534;SDS011;34323;52.022;5.686;2022-09-20T13:42:48;3.47;;;0.73;;
48534;SDS011;34323;52.022;5.686;2022-09-20T13:45:16;1.88;;;0.50;;
48534;SDS011;34323;52.022;5.686;2022-09-20T13:47:46;3.97;;;0.52;;
48534;SDS011;34323;52.022;5.686;2022-09-20T13:50:20;2.35;;;0.65;;
48534;SDS011;34323;52.022;5.686;2022-09-20T13:52:48;2.55;;;0.60;;
48534;SDS011;34323;52.022;5.686;2022-09-20T13:55:20;2.33;;;0.60;;
48534;SDS011;34323;52.022;5.686;2022-09-20T13:57:49;3.03;;;0.70;;
48534;SDS011;34323;52.022;5.686;2022-09-20T14:00:16;1.67;;;0.68;;
48534;SDS011;34323;52.022;5.686;2022-09-20T14:02:42;2.40;;;0.65;;
48534;SDS011;34323;52.022;5.686;2022-09-20T14:05:13;1.13;;;0.22;;
48534;SDS011;34323;52.022;5.686;2022-09-20T14:07:43;0.57;;;0.25;;
48534;SDS011;34323;52.022;5.686;2022-09-20T14:12:55;2.15;;;0.50;;
48534;SDS011;34323;52.022;5.686;2022-09-20T14:15:26;3.33;;;0.65;;
48534;SDS011;34323;52.022;5.686;2022-09-20T14:17:57;2.00;;;0.40;;
48534;SDS011;34323;52.022;5.686;2022-09-20T14:20:25;4.97;;;0.80;;
48534;SDS011;34323;52.022;5.686;2022-09-20T14:22:50;1.27;;;0.50;;
48534;SDS011;34323;52.022;5.686;2022-09-20T14:25:20;1.45;;;0.38;;
48534;SDS011;34323;52.022;5.686;2022-09-20T14:28:03;1.17;;;0.50;;
48534;SDS011;34323;52.022;5.686;2022-09-20T14:30:34;1.80;;;0.40;;
48534;SDS011;34323;52.022;5.686;2022-09-20T14:33:00;1.73;;;0.55;;
48534;SDS011;34323;52.022;5.686;2022-09-20T14:35:29;3.67;;;0.65;;
48534;SDS011;34323;52.022;5.686;2022-09-20T14:37:56;7.28;;;1.00;;
48534;SDS011;34323;52.022;5.686;2022-09-20T14:40:32;3.58;;;1.00;;
48534;SDS011;34323;52.022;5.686;2022-09-20T14:43:20;2.55;;;0.55;;
48534;SDS011;34323;52.022;5.686;2022-09-20T14:45:51;2.70;;;0.98;;
48534;SDS011;34323;52.022;5.686;2022-09-20T14:51:07;2.38;;;0.57;;
48534;SDS011;34323;52.022;5.686;2022-09-20T14:53:41;1.13;;;0.30;;
48534;SDS011;34323;52.022;5.686;2022-09-20T14:56:09;2.25;;;0.68;;
48534;SDS011;34323;52.022;5.686;2022-09-20T15:01:31;1.67;;;0.63;;
48534;SDS011;34323;52.022;5.686;2022-09-20T15:03:57;1.60;;;0.40;;
48534;SDS011;34323;52.022;5.686;2022-09-20T15:06:23;3.13;;;0.77;;
48534;SDS011;34323;52.022;5.686;2022-09-20T15:08:49;3.60;;;0.57;;
48534;SDS011;34323;52.022;5.686;2022-09-20T15:11:16;1.60;;;0.50;;
48534;SDS011;34323;52.022;5.686;2022-09-20T15:13:42;3.53;;;0.80;;
48534;SDS011;34323;52.022;5.686;2022-09-20T15:16:11;3.85;;;1.17;;
48534;SDS011;34323;52.022;5.686;2022-09-20T15:18:39;3.72;;;0.63;;
48534;SDS011;34323;52.022;5.686;2022-09-20T15:21:06;3.72;;;0.77;;
48534;SDS011;34323;52.022;5.686;2022-09-20T15:23:34;3.97;;;0.82;;
48534;SDS011;34323;52.022;5.686;2022-09-20T15:26:01;3.45;;;0.70;;
48534;SDS011;34323;52.022;5.686;2022-09-20T15:28:27;1.90;;;0.57;;
48534;SDS011;34323;52.022;5.686;2022-09-20T15:30:53;2.50;;;0.52;;
48534;SDS011;34323;52.022;5.686;2022-09-20T15:33:19;3.40;;;0.50;;
48534;SDS011;34323;52.022;5.686;2022-09-20T15:35:46;3.83;;;0.90;;
48534;SDS011;34323;52.022;5.686;2022-09-20T15:38:12;7.43;;;1.35;;
48534;SDS011;34323;52.022;5.686;2022-09-20T15:40:40;1.27;;;0.55;;
48534;SDS011;34323;52.022;5.686;2022-09-20T15:43:07;1.35;;;0.43;;
48534;SDS011;34323;52.022;5.686;2022-09-20T15:45:49;4.22;;;1.20;;
48534;SDS011;34323;52.022;5.686;2022-09-20T15:48:17;2.63;;;0.57;;
48534;SDS011;34323;52.022;5.686;2022-09-20T15:51:04;4.35;;;0.73;;
48534;SDS011;34323;52.022;5.686;2022-09-20T15:53:35;3.65;;;0.85;;
48534;SDS011;34323;52.022;5.686;2022-09-20T15:56:03;5.25;;;0.77;;
48534;SDS011;34323;52.022;5.686;2022-09-20T15:58:38;2.17;;;0.70;;
48534;SDS011;34323;52.022;5.686;2022-09-20T16:01:07;5.75;;;1.20;;
48534;SDS011;34323;52.022;5.686;2022-09-20T16:03:34;3.05;;;1.10;;
48534;SDS011;34323;52.022;5.686;2022-09-20T16:06:04;3.42;;;0.68;;
48534;SDS011;34323;52.022;5.686;2022-09-20T16:08:31;2.22;;;0.43;;
48534;SDS011;34323;52.022;5.686;2022-09-20T16:11:02;3.05;;;0.52;;
48534;SDS011;34323;52.022;5.686;2022-09-20T16:13:29;2.17;;;0.50;;
48534;SDS011;34323;52.022;5.686;2022-09-20T16:15:55;2.50;;;0.40;;
48534;SDS011;34323;52.022;5.686;2022-09-20T16:18:22;3.28;;;0.50;;
48534;SDS011;34323;52.022;5.686;2022-09-20T16:21:11;8.02;;;1.08;;
48534;SDS011;34323;52.022;5.686;2022-09-20T16:23:38;1.00;;;0.40;;
48534;SDS011;34323;52.022;5.686;2022-09-20T16:26:05;4.65;;;0.77;;
48534;SDS011;34323;52.022;5.686;2022-09-20T16:28:32;2.25;;;0.60;;
48534;SDS011;34323;52.022;5.686;2022-09-20T16:30:58;2.58;;;0.45;;
48534;SDS011;34323;52.022;5.686;2022-09-20T16:33:24;1.52;;;0.47;;
48534;SDS011;34323;52.022;5.686;2022-09-20T16:35:50;1.80;;;0.68;;
48534;SDS011;34323;52.022;5.686;2022-09-20T16:38:16;3.38;;;0.50;;
48534;SDS011;34323;52.022;5.686;2022-09-20T16:40:42;2.42;;;0.52;;
48534;SDS011;34323;52.022;5.686;2022-09-20T16:43:08;2.83;;;0.57;;
48534;SDS011;34323;52.022;5.686;2022-09-20T16:45:34;2.90;;;0.50;;
48534;SDS011;34323;52.022;5.686;2022-09-20T16:47:59;2.28;;;0.32;;
48534;SDS011;34323;52.022;5.686;2022-09-20T16:50:27;1.48;;;0.55;;
48534;SDS011;34323;52.022;5.686;2022-09-20T16:52:53;2.28;;;0.60;;
48534;SDS011;34323;52.022;5.686;2022-09-20T16:55:18;1.05;;;0.63;;
48534;SDS011;34323;52.022;5.686;2022-09-20T16:57:47;2.22;;;0.90;;
48534;SDS011;34323;52.022;5.686;2022-09-20T17:00:13;1.42;;;0.80;;
48534;SDS011;34323;52.022;5.686;2022-09-20T17:02:40;1.15;;;0.50;;
48534;SDS011;34323;52.022;5.686;2022-09-20T17:05:06;4.55;;;1.42;;
48534;SDS011;34323;52.022;5.686;2022-09-20T17:07:32;2.65;;;1.10;;
48534;SDS011;34323;52.022;5.686;2022-09-20T17:09:58;1.90;;;0.60;;
48534;SDS011;34323;52.022;5.686;2022-09-20T17:12:25;0.95;;;0.30;;
48534;SDS011;34323;52.022;5.686;2022-09-20T17:14:56;1.95;;;0.50;;
48534;SDS011;34323;52.022;5.686;2022-09-20T17:17:22;1.15;;;0.70;;
48534;SDS011;34323;52.022;5.686;2022-09-20T17:19:48;4.50;;;1.23;;
48534;SDS011;34323;52.022;5.686;2022-09-20T17:22:13;0.47;;;0.47;;
48534;SDS011;34323;52.022;5.686;2022-09-20T17:24:39;1.20;;;0.47;;
48534;SDS011;34323;52.022;5.686;2022-09-20T17:27:05;2.25;;;1.05;;
48534;SDS011;34323;52.022;5.686;2022-09-20T17:29:31;4.03;;;1.60;;
48534;SDS011;34323;52.022;5.686;2022-09-20T17:31:56;2.83;;;1.55;;
48534;SDS011;34323;52.022;5.686;2022-09-20T17:34:23;3.13;;;1.08;;
48534;SDS011;34323;52.022;5.686;2022-09-20T17:36:50;2.08;;;1.00;;
48534;SDS011;34323;52.022;5.686;2022-09-20T17:39:18;0.85;;;0.63;;
48534;SDS011;34323;52.022;5.686;2022-09-20T17:41:47;1.45;;;0.70;;
48534;SDS011;34323;52.022;5.686;2022-09-20T17:44:14;0.60;;;0.38;;
48534;SDS011;34323;52.022;5.686;2022-09-20T17:46:41;3.95;;;0.82;;
48534;SDS011;34323;52.022;5.686;2022-09-20T17:49:09;2.33;;;0.38;;
48534;SDS011;34323;52.022;5.686;2022-09-20T17:51:40;3.03;;;0.80;;
48534;SDS011;34323;52.022;5.686;2022-09-20T17:54:10;2.17;;;0.68;;
48534;SDS011;34323;52.022;5.686;2022-09-20T17:56:37;3.67;;;0.80;;
48534;SDS011;34323;52.022;5.686;2022-09-20T17:59:04;5.03;;;1.40;;
48534;SDS011;34323;52.022;5.686;2022-09-20T18:01:31;5.75;;;1.00;;
48534;SDS011;34323;52.022;5.686;2022-09-20T18:03:58;2.72;;;1.15;;
48534;SDS011;34323;52.022;5.686;2022-09-20T18:06:26;3.28;;;0.88;;
48534;SDS011;34323;52.022;5.686;2022-09-20T18:08:54;1.85;;;0.85;;
48534;SDS011;34323;52.022;5.686;2022-09-20T18:11:31;2.85;;;0.80;;
48534;SDS011;34323;52.022;5.686;2022-09-20T18:13:58;5.93;;;0.60;;
48534;SDS011;34323;52.022;5.686;2022-09-20T18:16:24;0.90;;;0.45;;
48534;SDS011;34323;52.022;5.686;2022-09-20T18:18:50;1.05;;;0.52;;
48534;SDS011;34323;52.022;5.686;2022-09-20T18:21:17;1.50;;;0.70;;
48534;SDS011;34323;52.022;5.686;2022-09-20T18:23:47;3.25;;;0.60;;
48534;SDS011;34323;52.022;5.686;2022-09-20T18:26:21;0.57;;;0.40;;
48534;SDS011;34323;52.022;5.686;2022-09-20T18:33:55;0.95;;;0.40;;
48534;SDS011;34323;52.022;5.686;2022-09-20T18:36:21;0.95;;;0.50;;
48534;SDS011;34323;52.022;5.686;2022-09-20T18:38:49;5.88;;;0.60;;
48534;SDS011;34323;52.022;5.686;2022-09-20T18:41:18;3.50;;;0.50;;
48534;SDS011;34323;52.022;5.686;2022-09-20T18:44:04;1.52;;;0.47;;
48534;SDS011;34323;52.022;5.686;2022-09-20T18:46:32;3.33;;;0.90;;
48534;SDS011;34323;52.022;5.686;2022-09-20T18:49:03;1.98;;;0.82;;
48534;SDS011;34323;52.022;5.686;2022-09-20T18:51:31;1.65;;;0.45;;
48534;SDS011;34323;52.022;5.686;2022-09-20T18:53:56;1.65;;;0.73;;
48534;SDS011;34323;52.022;5.686;2022-09-20T18:56:26;8.00;;;1.02;;
48534;SDS011;34323;52.022;5.686;2022-09-20T18:59:51;1.63;;;0.60;;
48534;SDS011;34323;52.022;5.686;2022-09-20T19:06:15;3.20;;;1.45;;
48534;SDS011;34323;52.022;5.686;2022-09-20T19:28:30;2.85;;;1.10;;
48534;SDS011;34323;52.022;5.686;2022-09-20T19:30:56;2.83;;;1.08;;
48534;SDS011;34323;52.022;5.686;2022-09-20T19:33:22;3.40;;;1.27;;
48534;SDS011;34323;52.022;5.686;2022-09-20T19:35:48;5.38;;;1.23;;
48534;SDS011;34323;52.022;5.686;2022-09-20T19:38:23;2.35;;;0.90;;
48534;SDS011;34323;52.022;5.686;2022-09-20T19:51:38;4.07;;;1.40;;
48534;SDS011;34323;52.022;5.686;2022-09-20T19:54:08;2.72;;;1.23;;
48534;SDS011;34323;52.022;5.686;2022-09-20T19:56:55;2.55;;;1.30;;
48534;SDS011;34323;52.022;5.686;2022-09-20T19:59:24;3.28;;;1.23;;
48534;SDS011;34323;52.022;5.686;2022-09-20T20:01:51;4.80;;;1.88;;
48534;SDS011;34323;52.022;5.686;2022-09-20T20:04:18;6.30;;;1.58;;
48534;SDS011;34323;52.022;5.686;2022-09-20T20:09:26;2.33;;;1.10;;
48534;SDS011;34323;52.022;5.686;2022-09-20T20:12:07;3.95;;;1.30;;
48534;SDS011;34323;52.022;5.686;2022-09-20T20:20:30;4.97;;;1.45;;
48534;SDS011;34323;52.022;5.686;2022-09-20T20:23:06;1.10;;;0.88;;
48534;SDS011;34323;52.022;5.686;2022-09-20T20:28:27;7.13;;;1.00;;
48534;SDS011;34323;52.022;5.686;2022-09-20T20:30:53;2.00;;;0.90;;
48534;SDS011;34323;52.022;5.686;2022-09-20T20:33:19;3.83;;;1.42;;